sensor_id;sensor_type;location;lat;lon;timestamp;pressure;altitude;pressure_sealevel;temperature;humidity
12991;BME280;6560;57.692;11.958;2023-03-21T00:01:56;101068.34;;;15.37;100.00
12991;BME280;6560;57.692;11.958;2023-03-21T00:04:22;101010.56;;;15.77;100.00
12991;BME280;6560;57.692;11.958;2023-03-21T00:06:48;101069.53;;;16.61;100.00
12991;BME280;6560;57.692;11.958;2023-03-21T00:09:14;101019.81;;;16.60;100.00
12991;BME280;6560;57.692;11.958;2023-03-21T00:11:40;101061.72;;;16.64;100.00
12991;BME280;6560;57.692;11.958;2023-03-21T00:14:05;101037.69;;;16.79;100.00
12991;BME280;6560;57.692;11.958;2023-03-21T00:16:33;101008.69;;;16.53;100.00
12991;BME280;6560;57.692;11.958;2023-03-21T00:19:00;101061.41;;;16.74;100.00
12991;BME280;6560;57.692;11.958;2023-03-21T02:04:40;101033.66;;;16.24;100.00
12991;BME280;6560;57.692;11.958;2023-03-21T02:07:09;101046.00;;;16.54;100.00
12991;BME280;6560;57.692;11.958;2023-03-21T02:09:38;101045.69;;;16.48;100.00
12991;BME280;6560;57.692;11.958;2023-03-21T02:12:06;101004.53;;;16.11;100.00
12991;BME280;6560;57.692;11.958;2023-03-21T02:14:35;101061.25;;;16.57;100.00
12991;BME280;6560;57.692;11.958;2023-03-21T02:31:13;101071.72;;;16.23;100.00
12991;BME280;6560;57.692;11.958;2023-03-21T02:33:56;101077.28;;;16.42;100.00
12991;BME280;6560;57.692;11.958;2023-03-21T02:37:01;101082.00;;;16.62;100.00
12991;BME280;6560;57.692;11.958;2023-03-21T02:39:41;101071.84;;;16.10;100.00
12991;BME280;6560;57.692;11.958;2023-03-21T02:45:21;101054.22;;;15.66;100.00
12991;BME280;6560;57.692;11.958;2023-03-21T02:47:52;101078.50;;;15.87;100.00
12991;BME280;6560;57.692;11.958;2023-03-21T02:50:23;101069.75;;;15.45;100.00
12991;BME280;6560;57.692;11.958;2023-03-21T02:52:51;101027.22;;;15.89;100.00
12991;BME280;6560;57.692;11.958;2023-03-21T02:55:23;101050.13;;;15.43;100.00
12991;BME280;6560;57.692;11.958;2023-03-21T02:57:52;101058.34;;;15.61;100.00
12991;BME280;6560;57.692;11.958;2023-03-21T03:00:20;101041.31;;;15.44;100.00
12991;BME280;6560;57.692;11.958;2023-03-21T03:02:48;101060.81;;;15.87;100.00
12991;BME280;6560;57.692;11.958;2023-03-21T03:05:28;101031.19;;;15.67;100.00
12991;BME280;6560;57.692;11.958;2023-03-21T03:11:15;101036.31;;;15.93;100.00
12991;BME280;6560;57.692;11.958;2023-03-21T03:19:25;101041.63;;;15.78;100.00
12991;BME280;6560;57.692;11.958;2023-03-21T03:22:02;101047.50;;;15.87;100.00
12991;BME280;6560;57.692;11.958;2023-03-21T03:24:36;101042.91;;;16.00;100.00
12991;BME280;6560;57.692;11.958;2023-03-21T03:27:13;101041.91;;;15.83;100.00
12991;BME280;6560;57.692;11.958;2023-03-21T03:29:43;101050.06;;;16.01;100.00
12991;BME280;6560;57.692;11.958;2023-03-21T03:32:35;101026.28;;;16.04;100.00
12991;BME280;6560;57.692;11.958;2023-03-21T03:35:03;101058.41;;;15.77;100.00
12991;BME280;6560;57.692;11.958;2023-03-21T03:37:33;101005.34;;;15.35;100.00
12991;BME280;6560;57.692;11.958;2023-03-21T03:40:08;101059.97;;;15.74;100.00
12991;BME280;6560;57.692;11.958;2023-03-21T03:42:52;101070.00;;;15.50;100.00
12991;BME280;6560;57.692;11.958;2023-03-21T03:45:24;101071.88;;;14.81;100.00
12991;BME280;6560;57.692;11.958;2023-03-21T03:50:38;101060.97;;;15.90;100.00
12991;BME280;6560;57.692;11.958;2023-03-21T03:53:24;101059.25;;;16.22;100.00
12991;BME280;6560;57.692;11.958;2023-03-21T03:55:53;101034.91;;;16.14;100.00
12991;BME280;6560;57.692;11.958;2023-03-21T03:58:21;101037.69;;;16.32;100.00
12991;BME280;6560;57.692;11.958;2023-03-21T04:00:47;101047.06;;;16.42;100.00
12991;BME280;6560;57.692;11.958;2023-03-21T04:03:13;101053.53;;;15.85;100.00
12991;BME280;6560;57.692;11.958;2023-03-21T04:05:39;101060.50;;;15.98;100.00
12991;BME280;6560;57.692;11.958;2023-03-21T04:08:07;101039.72;;;16.21;100.00
12991;BME280;6560;57.692;11.958;2023-03-21T04:10:32;101053.81;;;15.89;100.00
12991;BME280;6560;57.692;11.958;2023-03-21T04:12:58;101052.53;;;15.98;100.00
12991;BME280;6560;57.692;11.958;2023-03-21T04:15:23;101040.22;;;16.14;100.00
12991;BME280;6560;57.692;11.958;2023-03-21T04:17:49;101052.72;;;16.31;100.00
12991;BME280;6560;57.692;11.958;2023-03-21T04:20:15;100974.22;;;15.92;100.00
12991;BME280;6560;57.692;11.958;2023-03-21T04:22:41;101045.25;;;16.10;100.00
12991;BME280;6560;57.692;11.958;2023-03-21T04:25:07;100979.13;;;15.70;100.00
12991;BME280;6560;57.692;11.958;2023-03-21T04:27:33;101046.25;;;16.12;100.00
12991;BME280;6560;57.692;11.958;2023-03-21T04:29:58;101066.03;;;15.14;100.00
12991;BME280;6560;57.692;11.958;2023-03-21T04:32:25;101057.34;;;15.31;100.00
12991;BME280;6560;57.692;11.958;2023-03-21T04:34:51;100986.97;;;14.95;100.00
12991;BME280;6560;57.692;11.958;2023-03-21T04:37:19;101013.31;;;15.64;100.00
12991;BME280;6560;57.692;11.958;2023-03-21T04:39:45;101064.19;;;16.00;100.00
12991;BME280;6560;57.692;11.958;2023-03-21T04:42:13;101024.66;;;15.91;100.00
12991;BME280;6560;57.692;11.958;2023-03-21T04:44:39;101053.31;;;16.11;100.00
12991;BME280;6560;57.692;11.958;2023-03-21T04:47:06;101005.66;;;16.00;100.00
12991;BME280;6560;57.692;11.958;2023-03-21T04:49:31;101044.19;;;16.22;100.00
12991;BME280;6560;57.692;11.958;2023-03-21T04:51:57;101005.56;;;16.29;100.00
12991;BME280;6560;57.692;11.958;2023-03-21T04:54:22;101046.06;;;16.09;100.00
12991;BME280;6560;57.692;11.958;2023-03-21T04:56:48;101054.84;;;15.77;100.00
12991;BME280;6560;57.692;11.958;2023-03-21T04:59:22;101056.66;;;15.92;100.00
12991;BME280;6560;57.692;11.958;2023-03-21T05:01:54;101034.31;;;15.60;100.00
12991;BME280;6560;57.692;11.958;2023-03-21T05:04:21;101038.63;;;15.87;100.00
12991;BME280;6560;57.692;11.958;2023-03-21T05:06:46;100965.38;;;15.33;100.00
12991;BME280;6560;57.692;11.958;2023-03-21T05:09:12;101059.84;;;16.02;100.00
12991;BME280;6560;57.692;11.958;2023-03-21T05:11:39;101047.63;;;16.20;100.00
12991;BME280;6560;57.692;11.958;2023-03-21T05:14:11;101051.03;;;16.03;100.00
12991;BME280;6560;57.692;11.958;2023-03-21T05:16:40;101063.19;;;15.68;100.00
12991;BME280;6560;57.692;11.958;2023-03-21T05:19:09;101062.44;;;15.85;100.00
12991;BME280;6560;57.692;11.958;2023-03-21T05:21:38;101062.88;;;15.49;100.00
12991;BME280;6560;57.692;11.958;2023-03-21T05:24:12;101066.94;;;14.59;100.00
12991;BME280;6560;57.692;11.958;2023-03-21T05:26:38;101003.63;;;14.65;100.00
12991;BME280;6560;57.692;11.958;2023-03-21T05:29:04;101000.00;;;15.49;100.00
12991;BME280;6560;57.692;11.958;2023-03-21T05:31:30;101061.06;;;16.07;100.00
12991;BME280;6560;57.692;11.958;2023-03-21T05:33:56;100941.75;;;15.38;100.00
12991;BME280;6560;57.692;11.958;2023-03-21T05:36:21;101074.16;;;15.89;100.00
12991;BME280;6560;57.692;11.958;2023-03-21T05:38:46;101071.56;;;16.65;100.00
12991;BME280;6560;57.692;11.958;2023-03-21T05:41:13;101072.38;;;16.64;100.00
12991;BME280;6560;57.692;11.958;2023-03-21T05:43:39;101039.78;;;15.77;100.00
12991;BME280;6560;57.692;11.958;2023-03-21T05:46:05;101043.28;;;16.22;100.00
12991;BME280;6560;57.692;11.958;2023-03-21T05:48:30;101023.63;;;15.89;100.00
12991;BME280;6560;57.692;11.958;2023-03-21T05:50:56;100988.47;;;16.09;100.00
12991;BME280;6560;57.692;11.958;2023-03-21T05:53:21;101063.00;;;15.80;100.00
12991;BME280;6560;57.692;11.958;2023-03-21T05:55:47;101043.94;;;15.87;100.00
12991;BME280;6560;57.692;11.958;2023-03-21T05:58:12;101068.69;;;15.71;100.00
12991;BME280;6560;57.692;11.958;2023-03-21T06:00:38;101073.03;;;15.27;100.00
12991;BME280;6560;57.692;11.958;2023-03-21T06:03:03;101067.22;;;14.77;100.00
12991;BME280;6560;57.692;11.958;2023-03-21T06:05:29;101077.91;;;15.06;100.00
12991;BME280;6560;57.692;11.958;2023-03-21T06:07:54;101079.03;;;15.09;100.00
12991;BME280;6560;57.692;11.958;2023-03-21T06:10:20;101066.69;;;15.25;100.00
12991;BME280;6560;57.692;11.958;2023-03-21T06:12:45;101063.09;;;15.67;100.00
12991;BME280;6560;57.692;11.958;2023-03-21T06:15:11;101062.44;;;16.00;100.00
12991;BME280;6560;57.692;11.958;2023-03-21T06:17:36;101047.31;;;15.84;100.00
12991;BME280;6560;57.692;11.958;2023-03-21T06:20:03;101028.75;;;15.55;100.00
12991;BME280;6560;57.692;11.958;2023-03-21T06:22:30;101023.53;;;15.14;100.00
12991;BME280;6560;57.692;11.958;2023-03-21T06:24:55;101071.44;;;15.15;100.00
12991;BME280;6560;57.692;11.958;2023-03-21T06:27:21;101072.28;;;15.14;100.00
12991;BME280;6560;57.692;11.958;2023-03-21T06:29:47;101056.25;;;14.85;100.00
12991;BME280;6560;57.692;11.958;2023-03-21T06:32:13;101070.41;;;15.56;100.00
12991;BME280;6560;57.692;11.958;2023-03-21T06:34:38;101035.28;;;15.47;100.00
12991;BME280;6560;57.692;11.958;2023-03-21T06:37:04;101050.41;;;16.07;100.00
12991;BME280;6560;57.692;11.958;2023-03-21T06:39:30;101048.84;;;15.51;100.00
12991;BME280;6560;57.692;11.958;2023-03-21T06:41:57;100987.22;;;14.57;100.00
12991;BME280;6560;57.692;11.958;2023-03-21T06:44:24;100971.34;;;14.16;100.00
12991;BME280;6560;57.692;11.958;2023-03-21T06:46:50;101043.97;;;15.15;100.00
12991;BME280;6560;57.692;11.958;2023-03-21T06:49:16;100993.16;;;14.81;100.00
12991;BME280;6560;57.692;11.958;2023-03-21T06:51:42;101046.88;;;14.77;100.00
12991;BME280;6560;57.692;11.958;2023-03-21T06:54:08;101058.50;;;15.64;100.00
12991;BME280;6560;57.692;11.958;2023-03-21T06:56:33;100878.91;;;14.65;100.00
12991;BME280;6560;57.692;11.958;2023-03-21T06:59:01;100925.16;;;14.68;100.00
12991;BME280;6560;57.692;11.958;2023-03-21T07:01:27;100990.19;;;14.90;100.00
12991;BME280;6560;57.692;11.958;2023-03-21T07:03:54;101053.25;;;15.51;100.00
12991;BME280;6560;57.692;11.958;2023-03-21T07:06:22;101059.22;;;15.76;100.00
12991;BME280;6560;57.692;11.958;2023-03-21T07:08:47;101056.06;;;15.25;100.00
12991;BME280;6560;57.692;11.958;2023-03-21T07:11:13;101003.81;;;15.53;100.00
12991;BME280;6560;57.692;11.958;2023-03-21T07:13:38;101038.56;;;16.02;100.00
12991;BME280;6560;57.692;11.958;2023-03-21T07:16:04;101049.19;;;16.16;100.00
12991;BME280;6560;57.692;11.958;2023-03-21T07:18:30;101029.78;;;15.14;100.00
12991;BME280;6560;57.692;11.958;2023-03-21T07:20:56;101009.63;;;15.47;100.00
12991;BME280;6560;57.692;11.958;2023-03-21T07:23:23;101069.16;;;16.24;100.00
12991;BME280;6560;57.692;11.958;2023-03-21T07:25:50;101026.81;;;16.13;100.00
12991;BME280;6560;57.692;11.958;2023-03-21T07:28:17;101072.19;;;16.61;100.00
12991;BME280;6560;57.692;11.958;2023-03-21T07:30:44;101067.06;;;16.19;100.00
12991;BME280;6560;57.692;11.958;2023-03-21T07:33:11;101053.44;;;16.29;100.00
12991;BME280;6560;57.692;11.958;2023-03-21T07:35:37;101015.69;;;16.20;100.00
12991;BME280;6560;57.692;11.958;2023-03-21T07:38:03;101039.28;;;16.45;100.00
12991;BME280;6560;57.692;11.958;2023-03-21T07:40:29;101069.88;;;16.67;100.00
12991;BME280;6560;57.692;11.958;2023-03-21T07:42:55;101052.56;;;15.53;100.00
12991;BME280;6560;57.692;11.958;2023-03-21T07:45:20;101020.88;;;15.43;100.00
12991;BME280;6560;57.692;11.958;2023-03-21T07:47:48;101072.97;;;16.44;100.00
12991;BME280;6560;57.692;11.958;2023-03-21T07:50:14;101061.34;;;16.58;100.00
12991;BME280;6560;57.692;11.958;2023-03-21T07:52:40;101058.06;;;16.48;100.00
12991;BME280;6560;57.692;11.958;2023-03-21T07:55:06;101063.38;;;16.31;100.00
12991;BME280;6560;57.692;11.958;2023-03-21T07:57:32;101046.81;;;16.37;100.00
12991;BME280;6560;57.692;11.958;2023-03-21T07:59:58;101046.69;;;16.97;100.00
12991;BME280;6560;57.692;11.958;2023-03-21T08:02:24;101052.25;;;17.02;100.00
12991;BME280;6560;57.692;11.958;2023-03-21T08:04:49;101044.50;;;16.74;100.00
12991;BME280;6560;57.692;11.958;2023-03-21T08:07:17;101066.91;;;16.78;100.00
12991;BME280;6560;57.692;11.958;2023-03-21T08:09:43;101008.16;;;15.82;100.00
12991;BME280;6560;57.692;11.958;2023-03-21T08:12:09;101014.28;;;15.37;100.00
12991;BME280;6560;57.692;11.958;2023-03-21T08:14:35;101046.72;;;16.05;100.00
12991;BME280;6560;57.692;11.958;2023-03-21T08:17:02;101018.50;;;15.92;100.00
12991;BME280;6560;57.692;11.958;2023-03-21T08:19:28;101036.31;;;16.24;100.00
12991;BME280;6560;57.692;11.958;2023-03-21T08:21:53;101032.84;;;15.65;100.00
12991;BME280;6560;57.692;11.958;2023-03-21T08:24:19;101069.91;;;15.34;100.00
12991;BME280;6560;57.692;11.958;2023-03-21T08:26:45;101045.31;;;16.26;100.00
12991;BME280;6560;57.692;11.958;2023-03-21T08:29:13;101036.38;;;16.56;100.00
12991;BME280;6560;57.692;11.958;2023-03-21T08:31:39;100895.72;;;16.15;100.00
12991;BME280;6560;57.692;11.958;2023-03-21T08:34:06;101036.00;;;17.30;100.00
12991;BME280;6560;57.692;11.958;2023-03-21T08:36:32;101014.88;;;17.17;100.00
12991;BME280;6560;57.692;11.958;2023-03-21T08:39:01;100968.16;;;16.73;100.00
12991;BME280;6560;57.692;11.958;2023-03-21T08:41:34;101055.66;;;17.32;100.00
12991;BME280;6560;57.692;11.958;2023-03-21T08:44:00;101012.75;;;15.84;100.00
12991;BME280;6560;57.692;11.958;2023-03-21T08:46:26;101054.94;;;16.86;100.00
12991;BME280;6560;57.692;11.958;2023-03-21T08:48:52;100962.84;;;16.58;100.00
12991;BME280;6560;57.692;11.958;2023-03-21T08:51:18;101015.47;;;17.11;100.00
12991;BME280;6560;57.692;11.958;2023-03-21T08:53:44;101033.97;;;17.42;100.00
12991;BME280;6560;57.692;11.958;2023-03-21T08:56:10;101015.38;;;16.77;100.00
12991;BME280;6560;57.692;11.958;2023-03-21T08:58:36;101028.34;;;16.87;100.00
12991;BME280;6560;57.692;11.958;2023-03-21T09:01:03;101038.19;;;17.71;100.00
12991;BME280;6560;57.692;11.958;2023-03-21T09:03:28;101058.31;;;17.82;100.00
12991;BME280;6560;57.692;11.958;2023-03-21T09:05:55;101029.88;;;18.00;100.00
12991;BME280;6560;57.692;11.958;2023-03-21T09:08:21;101034.69;;;18.07;100.00
12991;BME280;6560;57.692;11.958;2023-03-21T09:10:48;100886.91;;;17.33;100.00
12991;BME280;6560;57.692;11.958;2023-03-21T09:13:16;101029.78;;;18.34;100.00
12991;BME280;6560;57.692;11.958;2023-03-21T09:15:42;101000.44;;;18.34;100.00
12991;BME280;6560;57.692;11.958;2023-03-21T09:18:08;100989.22;;;18.41;100.00
12991;BME280;6560;57.692;11.958;2023-03-21T09:20:45;101025.94;;;18.10;100.00
12991;BME280;6560;57.692;11.958;2023-03-21T09:23:12;101008.66;;;18.39;100.00
12991;BME280;6560;57.692;11.958;2023-03-21T09:25:39;101021.88;;;18.73;100.00
12991;BME280;6560;57.692;11.958;2023-03-21T09:28:04;100963.44;;;19.39;100.00
12991;BME280;6560;57.692;11.958;2023-03-21T09:30:34;101011.63;;;20.02;100.00
12991;BME280;6560;57.692;11.958;2023-03-21T09:33:02;101009.66;;;19.77;100.00
12991;BME280;6560;57.692;11.958;2023-03-21T09:35:31;100973.66;;;19.48;100.00
12991;BME280;6560;57.692;11.958;2023-03-21T09:37:57;100952.47;;;19.53;100.00
12991;BME280;6560;57.692;11.958;2023-03-21T09:48:57;101024.44;;;20.31;100.00
12991;BME280;6560;57.692;11.958;2023-03-21T09:51:48;100987.38;;;20.19;100.00
12991;BME280;6560;57.692;11.958;2023-03-21T09:54:30;101006.34;;;20.46;100.00
12991;BME280;6560;57.692;11.958;2023-03-21T09:57:01;101017.41;;;20.33;100.00
12991;BME280;6560;57.692;11.958;2023-03-21T09:59:36;100954.50;;;20.23;100.00
12991;BME280;6560;57.692;11.958;2023-03-21T10:02:25;100985.41;;;20.15;100.00
12991;BME280;6560;57.692;11.958;2023-03-21T10:04:58;101002.31;;;20.57;100.00
12991;BME280;6560;57.692;11.958;2023-03-21T10:07:25;101009.28;;;20.76;100.00
12991;BME280;6560;57.692;11.958;2023-03-21T10:09:53;101004.09;;;20.35;100.00
12991;BME280;6560;57.692;11.958;2023-03-21T10:12:22;100980.25;;;20.20;100.00
12991;BME280;6560;57.692;11.958;2023-03-21T10:14:51;100973.09;;;19.98;100.00
12991;BME280;6560;57.692;11.958;2023-03-21T10:17:25;101004.03;;;20.33;100.00
12991;BME280;6560;57.692;11.958;2023-03-21T10:22:35;100944.66;;;20.45;100.00
12991;BME280;6560;57.692;11.958;2023-03-21T10:25:01;100995.25;;;20.37;100.00
12991;BME280;6560;57.692;11.958;2023-03-21T10:27:26;101014.41;;;20.05;100.00
12991;BME280;6560;57.692;11.958;2023-03-21T10:29:52;100982.78;;;20.17;100.00
12991;BME280;6560;57.692;11.958;2023-03-21T10:32:22;100984.94;;;20.25;100.00
12991;BME280;6560;57.692;11.958;2023-03-21T10:34:54;100930.28;;;19.98;100.00
12991;BME280;6560;57.692;11.958;2023-03-21T10:37:21;100944.44;;;19.96;100.00
12991;BME280;6560;57.692;11.958;2023-03-21T10:39:54;100940.75;;;19.71;100.00
12991;BME280;6560;57.692;11.958;2023-03-21T10:42:25;100981.72;;;20.56;100.00
12991;BME280;6560;57.692;11.958;2023-03-21T10:44:55;101014.06;;;20.39;100.00
12991;BME280;6560;57.692;11.958;2023-03-21T10:47:24;100889.63;;;20.30;100.00
12991;BME280;6560;57.692;11.958;2023-03-21T10:49:50;100949.81;;;20.18;100.00
12991;BME280;6560;57.692;11.958;2023-03-21T10:52:21;100897.19;;;19.32;100.00
12991;BME280;6560;57.692;11.958;2023-03-21T10:54:48;100968.88;;;19.41;100.00
12991;BME280;6560;57.692;11.958;2023-03-21T10:57:19;100894.88;;;19.00;100.00
12991;BME280;6560;57.692;11.958;2023-03-21T10:59:50;100960.84;;;19.82;100.00
12991;BME280;6560;57.692;11.958;2023-03-21T11:02:46;100898.44;;;19.40;100.00
12991;BME280;6560;57.692;11.958;2023-03-21T11:05:23;100971.84;;;19.68;100.00
12991;BME280;6560;57.692;11.958;2023-03-21T11:08:05;100963.50;;;19.60;100.00
12991;BME280;6560;57.692;11.958;2023-03-21T11:10:37;100907.28;;;19.19;100.00
12991;BME280;6560;57.692;11.958;2023-03-21T11:13:24;100951.19;;;19.04;100.00
12991;BME280;6560;57.692;11.958;2023-03-21T11:16:03;100912.50;;;18.95;100.00
12991;BME280;6560;57.692;11.958;2023-03-21T11:18:30;100949.34;;;19.43;100.00
12991;BME280;6560;57.692;11.958;2023-03-21T11:21:04;100937.38;;;19.34;100.00
12991;BME280;6560;57.692;11.958;2023-03-21T11:23:32;100921.94;;;19.47;100.00
12991;BME280;6560;57.692;11.958;2023-03-21T11:25:59;100930.56;;;19.21;100.00
12991;BME280;6560;57.692;11.958;2023-03-21T11:28:32;100932.19;;;18.97;100.00
12991;BME280;6560;57.692;11.958;2023-03-21T11:31:01;100937.88;;;19.25;100.00
12991;BME280;6560;57.692;11.958;2023-03-21T11:33:33;100908.50;;;19.46;100.00
12991;BME280;6560;57.692;11.958;2023-03-21T11:38:47;100918.03;;;19.82;100.00
12991;BME280;6560;57.692;11.958;2023-03-21T11:43:52;100916.09;;;19.16;100.00
12991;BME280;6560;57.692;11.958;2023-03-21T11:46:23;100923.84;;;19.31;100.00
12991;BME280;6560;57.692;11.958;2023-03-21T11:48:49;100894.69;;;19.37;100.00
12991;BME280;6560;57.692;11.958;2023-03-21T11:51:40;100881.34;;;18.95;100.00
12991;BME280;6560;57.692;11.958;2023-03-21T12:00:03;100909.16;;;19.00;100.00
12991;BME280;6560;57.692;11.958;2023-03-21T12:05:28;100896.31;;;18.92;100.00
12991;BME280;6560;57.692;11.958;2023-03-21T12:15:56;100883.88;;;18.92;100.00
12991;BME280;6560;57.692;11.958;2023-03-21T12:21:22;100886.75;;;19.18;100.00
12991;BME280;6560;57.692;11.958;2023-03-21T12:24:14;100867.44;;;19.25;100.00
12991;BME280;6560;57.692;11.958;2023-03-21T12:32:16;100882.09;;;18.93;100.00
12991;BME280;6560;57.692;11.958;2023-03-21T12:35:19;100876.31;;;18.44;100.00
12991;BME280;6560;57.692;11.958;2023-03-21T12:43:26;100789.53;;;18.34;100.00
12991;BME280;6560;57.692;11.958;2023-03-21T12:45:57;100835.13;;;18.58;100.00
12991;BME280;6560;57.692;11.958;2023-03-21T12:51:27;100833.56;;;18.82;100.00
12991;BME280;6560;57.692;11.958;2023-03-21T12:53:59;100792.47;;;18.59;100.00
12991;BME280;6560;57.692;11.958;2023-03-21T12:56:37;100756.34;;;18.67;100.00
12991;BME280;6560;57.692;11.958;2023-03-21T12:59:12;100858.72;;;19.08;100.00
12991;BME280;6560;57.692;11.958;2023-03-21T13:01:50;100848.16;;;19.32;100.00
12991;BME280;6560;57.692;11.958;2023-03-21T13:04:31;100854.38;;;19.74;100.00
12991;BME280;6560;57.692;11.958;2023-03-21T13:07:00;100855.34;;;19.98;100.00
12991;BME280;6560;57.692;11.958;2023-03-21T13:09:38;100849.97;;;19.98;100.00
12991;BME280;6560;57.692;11.958;2023-03-21T13:14:55;100848.97;;;18.49;100.00
12991;BME280;6560;57.692;11.958;2023-03-21T13:17:39;100844.75;;;18.16;100.00
12991;BME280;6560;57.692;11.958;2023-03-21T13:20:31;100843.09;;;18.37;100.00
12991;BME280;6560;57.692;11.958;2023-03-21T13:22:59;100846.59;;;17.98;100.00
12991;BME280;6560;57.692;11.958;2023-03-21T13:25:25;100727.63;;;17.27;100.00
12991;BME280;6560;57.692;11.958;2023-03-21T13:27:54;100842.38;;;18.41;100.00
12991;BME280;6560;57.692;11.958;2023-03-21T13:30:27;100807.88;;;18.26;100.00
12991;BME280;6560;57.692;11.958;2023-03-21T13:33:10;100825.66;;;18.26;100.00
12991;BME280;6560;57.692;11.958;2023-03-21T13:35:39;100810.81;;;18.13;100.00
12991;BME280;6560;57.692;11.958;2023-03-21T13:38:14;100814.44;;;18.54;100.00
12991;BME280;6560;57.692;11.958;2023-03-21T13:40:56;100771.72;;;18.54;100.00
12991;BME280;6560;57.692;11.958;2023-03-21T13:43:45;100817.91;;;18.13;100.00
12991;BME280;6560;57.692;11.958;2023-03-21T13:49:00;100801.59;;;18.64;100.00
12991;BME280;6560;57.692;11.958;2023-03-21T13:54:25;100792.25;;;18.55;100.00
12991;BME280;6560;57.692;11.958;2023-03-21T13:56:52;100791.31;;;18.74;100.00
12991;BME280;6560;57.692;11.958;2023-03-21T14:04:39;100784.84;;;17.71;100.00
12991;BME280;6560;57.692;11.958;2023-03-21T14:07:07;100785.53;;;17.49;100.00
12991;BME280;6560;57.692;11.958;2023-03-21T14:09:40;100780.47;;;17.73;100.00
12991;BME280;6560;57.692;11.958;2023-03-21T14:12:19;100771.66;;;17.56;100.00
12991;BME280;6560;57.692;11.958;2023-03-21T14:14:53;100756.28;;;17.50;100.00
12991;BME280;6560;57.692;11.958;2023-03-21T14:17:25;100706.94;;;17.41;100.00
12991;BME280;6560;57.692;11.958;2023-03-21T14:19:53;100724.47;;;17.92;100.00
12991;BME280;6560;57.692;11.958;2023-03-21T14:22:19;100747.94;;;17.43;100.00
12991;BME280;6560;57.692;11.958;2023-03-21T14:24:55;100768.56;;;16.42;100.00
12991;BME280;6560;57.692;11.958;2023-03-21T14:27:23;100713.75;;;17.71;100.00
12991;BME280;6560;57.692;11.958;2023-03-21T14:29:50;100759.09;;;17.53;100.00
12991;BME280;6560;57.692;11.958;2023-03-21T14:32:21;100735.63;;;17.09;100.00
12991;BME280;6560;57.692;11.958;2023-03-21T14:34:48;100704.91;;;16.98;100.00
12991;BME280;6560;57.692;11.958;2023-03-21T14:37:30;100744.84;;;18.91;100.00
12991;BME280;6560;57.692;11.958;2023-03-21T14:40:03;100711.97;;;18.71;100.00
12991;BME280;6560;57.692;11.958;2023-03-21T14:42:36;100702.44;;;18.36;100.00
12991;BME280;6560;57.692;11.958;2023-03-21T14:45:25;100719.88;;;18.68;100.00
12991;BME280;6560;57.692;11.958;2023-03-21T14:47:55;100709.75;;;18.61;100.00
12991;BME280;6560;57.692;11.958;2023-03-21T14:50:26;100650.03;;;18.17;100.00
12991;BME280;6560;57.692;11.958;2023-03-21T14:52:54;100708.88;;;18.01;100.00
12991;BME280;6560;57.692;11.958;2023-03-21T14:55:20;100672.38;;;18.61;100.00
12991;BME280;6560;57.692;11.958;2023-03-21T14:57:45;100655.34;;;17.20;100.00
12991;BME280;6560;57.692;11.958;2023-03-21T15:00:31;100689.66;;;17.89;100.00
12991;BME280;6560;57.692;11.958;2023-03-21T15:02:58;100634.50;;;17.88;100.00
12991;BME280;6560;57.692;11.958;2023-03-21T15:10:24;100674.31;;;17.83;100.00
12991;BME280;6560;57.692;11.958;2023-03-21T15:12:54;100678.53;;;16.85;100.00
12991;BME280;6560;57.692;11.958;2023-03-21T15:15:22;100662.97;;;18.08;100.00
12991;BME280;6560;57.692;11.958;2023-03-21T15:17:49;100661.00;;;18.25;100.00
12991;BME280;6560;57.692;11.958;2023-03-21T15:20:18;100648.31;;;18.40;100.00
12991;BME280;6560;57.692;11.958;2023-03-21T15:22:55;100591.44;;;15.78;100.00
12991;BME280;6560;57.692;11.958;2023-03-21T15:25:29;100569.22;;;15.60;100.00
12991;BME280;6560;57.692;11.958;2023-03-21T15:27:59;100653.28;;;16.25;100.00
12991;BME280;6560;57.692;11.958;2023-03-21T15:30:26;100635.81;;;16.30;100.00
12991;BME280;6560;57.692;11.958;2023-03-21T15:32:53;100647.06;;;16.25;100.00
12991;BME280;6560;57.692;11.958;2023-03-21T15:35:25;100633.00;;;16.27;100.00
12991;BME280;6560;57.692;11.958;2023-03-21T15:37:55;100629.06;;;15.85;100.00
12991;BME280;6560;57.692;11.958;2023-03-21T15:40:27;100614.22;;;15.40;100.00
12991;BME280;6560;57.692;11.958;2023-03-21T15:43:19;100589.97;;;15.18;100.00
12991;BME280;6560;57.692;11.958;2023-03-21T15:45:54;100625.72;;;15.56;100.00
12991;BME280;6560;57.692;11.958;2023-03-21T15:48:33;100558.38;;;15.06;100.00
12991;BME280;6560;57.692;11.958;2023-03-21T15:51:02;100590.06;;;15.03;100.00
12991;BME280;6560;57.692;11.958;2023-03-21T15:53:31;100604.59;;;15.42;100.00
12991;BME280;6560;57.692;11.958;2023-03-21T15:55:58;100512.16;;;16.77;100.00
12991;BME280;6560;57.692;11.958;2023-03-21T15:58:42;100581.41;;;15.72;100.00
12991;BME280;6560;57.692;11.958;2023-03-21T16:01:16;100496.72;;;14.47;100.00
12991;BME280;6560;57.692;11.958;2023-03-21T16:03:44;100597.53;;;15.59;100.00
12991;BME280;6560;57.692;11.958;2023-03-21T16:08:48;100586.66;;;15.88;100.00
12991;BME280;6560;57.692;11.958;2023-03-21T16:13:48;100512.16;;;15.03;100.00
12991;BME280;6560;57.692;11.958;2023-03-21T16:16:20;100576.78;;;15.36;100.00
12991;BME280;6560;57.692;11.958;2023-03-21T16:18:46;100601.44;;;15.17;100.00
12991;BME280;6560;57.692;11.958;2023-03-21T16:21:16;100508.75;;;15.05;100.00